sensor_id;sensor_type;location;lat;lon;timestamp;pressure;altitude;pressure_sealevel;temperature;humidity
27425;BME280;15244;49.088;11.886;2023-03-24T00:04:55;95135.09;;;16.68;43.45
27425;BME280;15244;49.088;11.886;2023-03-24T00:10:00;95123.44;;;16.64;43.71
27425;BME280;15244;49.088;11.886;2023-03-24T00:15:07;95114.50;;;16.60;43.66
27425;BME280;15244;49.088;11.886;2023-03-24T00:20:13;95117.69;;;16.58;43.61
27425;BME280;15244;49.088;11.886;2023-03-24T00:25:20;95096.91;;;16.57;43.76
27425;BME280;15244;49.088;11.886;2023-03-24T00:30:29;95101.28;;;16.55;43.93
27425;BME280;15244;49.088;11.886;2023-03-24T00:35:32;95084.03;;;16.54;44.13
27425;BME280;15244;49.088;11.886;2023-03-24T00:40:35;95069.81;;;16.56;43.79
27425;BME280;15244;49.088;11.886;2023-03-24T00:45:36;95076.53;;;16.55;43.71
27425;BME280;15244;49.088;11.886;2023-03-24T00:50:47;95063.19;;;16.53;43.79
27425;BME280;15244;49.088;11.886;2023-03-24T00:55:50;95051.44;;;16.53;43.61
27425;BME280;15244;49.088;11.886;2023-03-24T01:00:56;95056.16;;;16.52;43.59
27425;BME280;15244;49.088;11.886;2023-03-24T01:06:01;95049.91;;;16.52;43.73
27425;BME280;15244;49.088;11.886;2023-03-24T01:11:07;95048.34;;;16.51;43.82
27425;BME280;15244;49.088;11.886;2023-03-24T01:16:10;95059.81;;;16.49;43.69
27425;BME280;15244;49.088;11.886;2023-03-24T01:21:12;95061.44;;;16.46;44.10
27425;BME280;15244;49.088;11.886;2023-03-24T01:26:19;95064.97;;;16.47;43.68
27425;BME280;15244;49.088;11.886;2023-03-24T01:31:26;95069.69;;;16.46;43.77
27425;BME280;15244;49.088;11.886;2023-03-24T01:36:36;95061.44;;;16.46;43.94
27425;BME280;15244;49.088;11.886;2023-03-24T01:41:38;95054.38;;;16.45;44.02
27425;BME280;15244;49.088;11.886;2023-03-24T01:46:42;95046.59;;;16.44;44.45
27425;BME280;15244;49.088;11.886;2023-03-24T01:51:46;95036.00;;;16.42;44.44
27425;BME280;15244;49.088;11.886;2023-03-24T01:56:52;95067.91;;;16.40;44.93
27425;BME280;15244;49.088;11.886;2023-03-24T02:01:56;95086.59;;;16.32;44.70
27425;BME280;15244;49.088;11.886;2023-03-24T02:07:36;95055.69;;;16.28;44.86
27425;BME280;15244;49.088;11.886;2023-03-24T02:12:41;95057.66;;;16.28;45.41
27425;BME280;15244;49.088;11.886;2023-03-24T02:18:02;95077.38;;;16.26;45.37
27425;BME280;15244;49.088;11.886;2023-03-24T02:28:53;95077.22;;;16.17;45.91
27425;BME280;15244;49.088;11.886;2023-03-24T02:34:11;95071.38;;;16.15;46.06
27425;BME280;15244;49.088;11.886;2023-03-24T02:39:44;95069.94;;;16.10;46.02
27425;BME280;15244;49.088;11.886;2023-03-24T02:55:44;95032.84;;;16.02;46.77
27425;BME280;15244;49.088;11.886;2023-03-24T03:00:56;95016.81;;;16.00;46.80
27425;BME280;15244;49.088;11.886;2023-03-24T03:06:36;95003.13;;;15.97;47.11
27425;BME280;15244;49.088;11.886;2023-03-24T03:11:45;94985.53;;;15.94;47.14
27425;BME280;15244;49.088;11.886;2023-03-24T03:17:11;94987.19;;;15.92;47.06
27425;BME280;15244;49.088;11.886;2023-03-24T03:22:25;94985.31;;;15.89;47.06
27425;BME280;15244;49.088;11.886;2023-03-24T03:27:33;94968.06;;;15.88;47.01
27425;BME280;15244;49.088;11.886;2023-03-24T03:32:49;94963.75;;;15.87;47.17
27425;BME280;15244;49.088;11.886;2023-03-24T03:38:09;94961.47;;;15.86;46.92
27425;BME280;15244;49.088;11.886;2023-03-24T03:43:15;94949.78;;;15.81;47.25
27425;BME280;15244;49.088;11.886;2023-03-24T03:48:21;94940.09;;;15.77;47.39
27425;BME280;15244;49.088;11.886;2023-03-24T03:53:33;94935.06;;;15.75;47.22
27425;BME280;15244;49.088;11.886;2023-03-24T03:58:38;94935.94;;;15.72;47.48
27425;BME280;15244;49.088;11.886;2023-03-24T04:15:00;94917.28;;;15.64;47.58
27425;BME280;15244;49.088;11.886;2023-03-24T04:20:21;94919.69;;;15.61;47.80
27425;BME280;15244;49.088;11.886;2023-03-24T04:25:43;94924.41;;;15.61;47.99
27425;BME280;15244;49.088;11.886;2023-03-24T04:31:03;94919.03;;;15.57;48.12
27425;BME280;15244;49.088;11.886;2023-03-24T04:42:00;94932.53;;;15.52;48.17
27425;BME280;15244;49.088;11.886;2023-03-24T04:47:10;94939.66;;;15.49;48.25
27425;BME280;15244;49.088;11.886;2023-03-24T04:52:21;94919.00;;;15.45;48.16
27425;BME280;15244;49.088;11.886;2023-03-24T04:57:25;94918.31;;;15.41;47.98
27425;BME280;15244;49.088;11.886;2023-03-24T05:02:34;94919.28;;;15.34;48.06
27425;BME280;15244;49.088;11.886;2023-03-24T05:07:44;94938.94;;;15.32;48.26
27425;BME280;15244;49.088;11.886;2023-03-24T05:12:49;94934.06;;;15.24;48.44
27425;BME280;15244;49.088;11.886;2023-03-24T05:18:11;94950.53;;;15.24;48.51
27425;BME280;15244;49.088;11.886;2023-03-24T05:23:14;94953.81;;;15.18;48.48
27425;BME280;15244;49.088;11.886;2023-03-24T05:28:20;94951.94;;;15.15;48.53
27425;BME280;15244;49.088;11.886;2023-03-24T05:33:22;94951.06;;;15.18;48.72
27425;BME280;15244;49.088;11.886;2023-03-24T05:38:26;94952.94;;;15.22;48.94
27425;BME280;15244;49.088;11.886;2023-03-24T05:43:29;94950.53;;;15.24;49.05
27425;BME280;15244;49.088;11.886;2023-03-24T05:48:41;94945.81;;;15.24;49.10
27425;BME280;15244;49.088;11.886;2023-03-24T05:53:49;94941.97;;;15.22;49.24
27425;BME280;15244;49.088;11.886;2023-03-24T05:58:59;94936.03;;;15.23;49.30
27425;BME280;15244;49.088;11.886;2023-03-24T06:04:27;94939.13;;;15.25;49.22
27425;BME280;15244;49.088;11.886;2023-03-24T06:09:40;94941.88;;;15.25;49.12
27425;BME280;15244;49.088;11.886;2023-03-24T06:14:49;94933.66;;;15.25;49.14
27425;BME280;15244;49.088;11.886;2023-03-24T06:19:56;94926.59;;;15.24;48.95
27425;BME280;15244;49.088;11.886;2023-03-24T06:25:17;94932.44;;;15.26;49.04
27425;BME280;15244;49.088;11.886;2023-03-24T06:30:32;94930.78;;;15.29;48.88
27425;BME280;15244;49.088;11.886;2023-03-24T06:35:40;94939.81;;;15.29;48.77
27425;BME280;15244;49.088;11.886;2023-03-24T06:40:49;94943.06;;;15.24;48.86
27425;BME280;15244;49.088;11.886;2023-03-24T06:45:54;94938.78;;;15.23;48.91
27425;BME280;15244;49.088;11.886;2023-03-24T06:50:57;94937.16;;;15.26;49.41
27425;BME280;15244;49.088;11.886;2023-03-24T06:56:01;94917.06;;;15.29;49.18
27425;BME280;15244;49.088;11.886;2023-03-24T07:01:11;94907.44;;;15.37;49.34
27425;BME280;15244;49.088;11.886;2023-03-24T07:06:34;94910.41;;;15.43;49.69
27425;BME280;15244;49.088;11.886;2023-03-24T07:11:55;94916.56;;;15.47;49.52
27425;BME280;15244;49.088;11.886;2023-03-24T07:16:59;94918.22;;;15.44;49.56
27425;BME280;15244;49.088;11.886;2023-03-24T07:22:10;94911.19;;;15.43;49.38
27425;BME280;15244;49.088;11.886;2023-03-24T07:27:38;94909.22;;;15.44;49.36
27425;BME280;15244;49.088;11.886;2023-03-24T07:32:43;94922.59;;;15.42;49.56
27425;BME280;15244;49.088;11.886;2023-03-24T07:37:47;94938.84;;;15.36;49.62
27425;BME280;15244;49.088;11.886;2023-03-24T07:42:51;94955.69;;;15.22;49.92
27425;BME280;15244;49.088;11.886;2023-03-24T07:48:11;94960.44;;;15.05;50.48
27425;BME280;15244;49.088;11.886;2023-03-24T07:53:14;94956.00;;;14.94;50.84
27425;BME280;15244;49.088;11.886;2023-03-24T07:58:31;94958.31;;;14.96;51.02
27425;BME280;15244;49.088;11.886;2023-03-24T08:03:51;94966.28;;;14.90;51.11
27425;BME280;15244;49.088;11.886;2023-03-24T08:09:21;94974.88;;;14.92;51.35
27425;BME280;15244;49.088;11.886;2023-03-24T08:14:24;94985.25;;;14.85;51.65
27425;BME280;15244;49.088;11.886;2023-03-24T08:19:26;94987.38;;;14.93;51.42
27425;BME280;15244;49.088;11.886;2023-03-24T08:24:31;94999.47;;;14.96;51.79
27425;BME280;15244;49.088;11.886;2023-03-24T08:29:34;94993.91;;;15.00;52.26
27425;BME280;15244;49.088;11.886;2023-03-24T08:34:36;94992.19;;;15.06;51.90
27425;BME280;15244;49.088;11.886;2023-03-24T08:39:38;94995.09;;;15.15;52.38
27425;BME280;15244;49.088;11.886;2023-03-24T08:44:44;94995.75;;;15.19;51.92
27425;BME280;15244;49.088;11.886;2023-03-24T08:49:46;95007.78;;;15.25;52.14
27425;BME280;15244;49.088;11.886;2023-03-24T08:54:48;95007.44;;;15.23;52.28
27425;BME280;15244;49.088;11.886;2023-03-24T08:59:50;95007.03;;;15.25;52.41
27425;BME280;15244;49.088;11.886;2023-03-24T09:04:52;95010.59;;;15.22;53.04
27425;BME280;15244;49.088;11.886;2023-03-24T09:10:00;95021.78;;;15.14;52.99
27425;BME280;15244;49.088;11.886;2023-03-24T09:15:07;95022.72;;;15.08;53.22
27425;BME280;15244;49.088;11.886;2023-03-24T09:20:13;95035.69;;;15.07;53.56
27425;BME280;15244;49.088;11.886;2023-03-24T09:25:22;95041.25;;;15.04;53.51
27425;BME280;15244;49.088;11.886;2023-03-24T09:30:36;95037.84;;;15.00;53.83
27425;BME280;15244;49.088;11.886;2023-03-24T09:35:38;95037.66;;;14.90;54.69
27425;BME280;15244;49.088;11.886;2023-03-24T09:40:41;95044.34;;;14.89;54.44
27425;BME280;15244;49.088;11.886;2023-03-24T09:45:54;95043.91;;;14.91;54.64
27425;BME280;15244;49.088;11.886;2023-03-24T09:51:11;95047.00;;;14.93;54.79
27425;BME280;15244;49.088;11.886;2023-03-24T09:56:18;95040.91;;;14.85;55.09
27425;BME280;15244;49.088;11.886;2023-03-24T10:01:23;95064.06;;;14.84;55.26
27425;BME280;15244;49.088;11.886;2023-03-24T10:06:37;95064.47;;;14.83;55.14
27425;BME280;15244;49.088;11.886;2023-03-24T10:12:06;95071.19;;;14.82;55.22
27425;BME280;15244;49.088;11.886;2023-03-24T10:28:13;95058.63;;;14.64;56.25
27425;BME280;15244;49.088;11.886;2023-03-24T10:33:19;95071.00;;;14.72;56.10
27425;BME280;15244;49.088;11.886;2023-03-24T10:38:22;95062.41;;;14.70;56.27
27425;BME280;15244;49.088;11.886;2023-03-24T10:43:25;95037.28;;;14.72;56.37
27425;BME280;15244;49.088;11.886;2023-03-24T10:48:45;94989.59;;;14.66;56.69
27425;BME280;15244;49.088;11.886;2023-03-24T10:53:47;94944.34;;;14.74;56.85
27425;BME280;15244;49.088;11.886;2023-03-24T10:58:49;94956.94;;;14.88;56.24
27425;BME280;15244;49.088;11.886;2023-03-24T11:03:51;94991.69;;;14.94;56.75
27425;BME280;15244;49.088;11.886;2023-03-24T11:09:18;94998.19;;;15.01;56.84
27425;BME280;15244;49.088;11.886;2023-03-24T11:14:26;95008.91;;;15.11;56.91
27425;BME280;15244;49.088;11.886;2023-03-24T11:19:34;95019.34;;;15.16;56.79
27425;BME280;15244;49.088;11.886;2023-03-24T11:24:39;95031.28;;;15.26;56.59
27425;BME280;15244;49.088;11.886;2023-03-24T11:29:41;95027.41;;;15.40;56.40
27425;BME280;15244;49.088;11.886;2023-03-24T11:34:46;95039.88;;;15.45;56.85
27425;BME280;15244;49.088;11.886;2023-03-24T11:45:34;95052.91;;;15.41;56.51
27425;BME280;15244;49.088;11.886;2023-03-24T11:50:38;95027.59;;;15.33;56.65
27425;BME280;15244;49.088;11.886;2023-03-24T12:00:58;95013.16;;;15.29;56.88
27425;BME280;15244;49.088;11.886;2023-03-24T12:33:09;94970.00;;;15.75;56.34
27425;BME280;15244;49.088;11.886;2023-03-24T12:38:29;94962.66;;;15.85;56.05
27425;BME280;15244;49.088;11.886;2023-03-24T12:54:20;94950.81;;;15.88;55.41
27425;BME280;15244;49.088;11.886;2023-03-24T12:59:32;94938.78;;;15.81;55.42
27425;BME280;15244;49.088;11.886;2023-03-24T13:04:44;94939.88;;;15.84;55.35
27425;BME280;15244;49.088;11.886;2023-03-24T13:20:19;94925.28;;;16.13;55.25
27425;BME280;15244;49.088;11.886;2023-03-24T13:30:51;94925.53;;;16.44;54.86
27425;BME280;15244;49.088;11.886;2023-03-24T13:36:07;94917.28;;;16.57;54.27
27425;BME280;15244;49.088;11.886;2023-03-24T13:41:19;94910.66;;;16.67;54.14
27425;BME280;15244;49.088;11.886;2023-03-24T13:46:24;94916.50;;;16.69;53.93
27425;BME280;15244;49.088;11.886;2023-03-24T13:51:31;94921.00;;;16.63;53.64
27425;BME280;15244;49.088;11.886;2023-03-24T13:56:37;94911.41;;;16.67;53.44
27425;BME280;15244;49.088;11.886;2023-03-24T14:01:43;94909.34;;;16.59;53.24
27425;BME280;15244;49.088;11.886;2023-03-24T14:06:51;94910.75;;;16.76;53.31
27425;BME280;15244;49.088;11.886;2023-03-24T14:27:39;94861.91;;;17.02;52.39
27425;BME280;15244;49.088;11.886;2023-03-24T14:32:54;94863.34;;;17.07;52.11
27425;BME280;15244;49.088;11.886;2023-03-24T14:48:32;94857.25;;;17.12;51.65
27425;BME280;15244;49.088;11.886;2023-03-24T14:53:36;94846.88;;;17.16;51.95
27425;BME280;15244;49.088;11.886;2023-03-24T14:58:41;94842.59;;;17.15;51.60
27425;BME280;15244;49.088;11.886;2023-03-24T15:03:57;94844.91;;;17.17;51.14
27425;BME280;15244;49.088;11.886;2023-03-24T15:09:00;94856.69;;;17.17;51.18
27425;BME280;15244;49.088;11.886;2023-03-24T15:14:20;94860.63;;;17.16;51.10
27425;BME280;15244;49.088;11.886;2023-03-24T15:19:28;94866.94;;;17.17;50.78
27425;BME280;15244;49.088;11.886;2023-03-24T15:24:35;94862.19;;;17.17;50.82
27425;BME280;15244;49.088;11.886;2023-03-24T15:29:42;94852.63;;;17.09;50.55
27425;BME280;15244;49.088;11.886;2023-03-24T15:34:47;94857.94;;;17.03;50.58
27425;BME280;15244;49.088;11.886;2023-03-24T15:39:53;94868.00;;;16.97;50.26
27425;BME280;15244;49.088;11.886;2023-03-24T15:45:44;94860.75;;;16.90;50.38
27425;BME280;15244;49.088;11.886;2023-03-24T15:51:07;94876.94;;;16.88;50.85
27425;BME280;15244;49.088;11.886;2023-03-24T16:01:27;94863.38;;;16.46;51.97
27425;BME280;15244;49.088;11.886;2023-03-24T16:06:40;94873.50;;;16.37;52.14
27425;BME280;15244;49.088;11.886;2023-03-24T16:11:43;94904.63;;;16.21;52.48
27425;BME280;15244;49.088;11.886;2023-03-24T16:16:44;94939.38;;;16.02;52.67
27425;BME280;15244;49.088;11.886;2023-03-24T16:21:48;94956.69;;;15.73;52.93
27425;BME280;15244;49.088;11.886;2023-03-24T16:26:51;94944.25;;;15.39;52.66
27425;BME280;15244;49.088;11.886;2023-03-24T16:31:55;94949.53;;;15.17;52.63
27425;BME280;15244;49.088;11.886;2023-03-24T16:37:02;94959.84;;;14.97;52.59
27425;BME280;15244;49.088;11.886;2023-03-24T16:42:04;94959.19;;;14.77;52.59
27425;BME280;15244;49.088;11.886;2023-03-24T16:47:09;94977.19;;;14.61;52.73
27425;BME280;15244;49.088;11.886;2023-03-24T16:52:13;94965.31;;;14.48;52.44
27425;BME280;15244;49.088;11.886;2023-03-24T16:57:19;94978.75;;;14.26;52.75
27425;BME280;15244;49.088;11.886;2023-03-24T17:02:21;94990.41;;;14.10;52.72
27425;BME280;15244;49.088;11.886;2023-03-24T17:07:22;94952.56;;;14.05;52.62
27425;BME280;15244;49.088;11.886;2023-03-24T17:12:28;94951.22;;;14.13;52.28
27425;BME280;15244;49.088;11.886;2023-03-24T17:17:34;94962.94;;;14.14;51.91
27425;BME280;15244;49.088;11.886;2023-03-24T17:22:36;94979.75;;;14.16;51.73
27425;BME280;15244;49.088;11.886;2023-03-24T17:27:37;94966.38;;;14.18;51.60
27425;BME280;15244;49.088;11.886;2023-03-24T17:32:45;94975.09;;;14.13;51.50
27425;BME280;15244;49.088;11.886;2023-03-24T17:37:48;94987.16;;;13.99;51.38
27425;BME280;15244;49.088;11.886;2023-03-24T17:42:50;94982.25;;;13.90;50.74
27425;BME280;15244;49.088;11.886;2023-03-24T17:47:52;94997.88;;;13.90;50.92
27425;BME280;15244;49.088;11.886;2023-03-24T17:53:00;94999.25;;;13.81;50.67
27425;BME280;15244;49.088;11.886;2023-03-24T17:58:01;94997.72;;;13.80;50.54
27425;BME280;15244;49.088;11.886;2023-03-24T18:03:05;95009.22;;;13.72;50.41
27425;BME280;15244;49.088;11.886;2023-03-24T18:08:07;95015.75;;;13.58;50.55
27425;BME280;15244;49.088;11.886;2023-03-24T18:13:09;95007.66;;;13.51;50.92
27425;BME280;15244;49.088;11.886;2023-03-24T18:18:13;95004.63;;;13.45;51.05
27425;BME280;15244;49.088;11.886;2023-03-24T18:23:35;94998.09;;;13.39;51.34
27425;BME280;15244;49.088;11.886;2023-03-24T18:28:37;94996.47;;;13.41;51.54
27425;BME280;15244;49.088;11.886;2023-03-24T18:33:39;94997.03;;;13.33;51.88
27425;BME280;15244;49.088;11.886;2023-03-24T18:38:43;94989.66;;;13.30;51.82
27425;BME280;15244;49.088;11.886;2023-03-24T18:43:47;94990.00;;;13.32;52.04
27425;BME280;15244;49.088;11.886;2023-03-24T18:48:49;95001.06;;;13.25;52.13
27425;BME280;15244;49.088;11.886;2023-03-24T18:53:53;94987.34;;;13.28;52.21
27425;BME280;15244;49.088;11.886;2023-03-24T18:58:57;94997.44;;;13.31;52.28
27425;BME280;15244;49.088;11.886;2023-03-24T19:04:01;95003.34;;;13.30;52.42
27425;BME280;15244;49.088;11.886;2023-03-24T19:09:05;94997.03;;;13.33;52.37
27425;BME280;15244;49.088;11.886;2023-03-24T19:14:11;95009.88;;;13.36;52.19
27425;BME280;15244;49.088;11.886;2023-03-24T19:19:13;95024.00;;;13.34;52.42
27425;BME280;15244;49.088;11.886;2023-03-24T19:24:21;95003.63;;;13.35;52.31
27425;BME280;15244;49.088;11.886;2023-03-24T19:29:25;95020.06;;;13.35;52.43
27425;BME280;15244;49.088;11.886;2023-03-24T19:34:26;95025.19;;;13.33;52.57
27425;BME280;15244;49.088;11.886;2023-03-24T19:39:31;95016.56;;;13.35;52.43
27425;BME280;15244;49.088;11.886;2023-03-24T19:44:33;95019.16;;;13.42;52.18
27425;BME280;15244;49.088;11.886;2023-03-24T19:49:36;95021.13;;;13.41;52.01
27425;BME280;15244;49.088;11.886;2023-03-24T19:54:38;95028.19;;;13.39;52.19
27425;BME280;15244;49.088;11.886;2023-03-24T19:59:39;95036.41;;;13.39;51.92
27425;BME280;15244;49.088;11.886;2023-03-24T20:04:41;95051.66;;;13.40;51.98
27425;BME280;15244;49.088;11.886;2023-03-24T20:09:43;95066.97;;;13.37;51.92
27425;BME280;15244;49.088;11.886;2023-03-24T20:14:49;95059.53;;;13.38;51.78
27425;BME280;15244;49.088;11.886;2023-03-24T20:19:51;95065.06;;;13.34;51.84
27425;BME280;15244;49.088;11.886;2023-03-24T20:24:54;95067.09;;;13.30;52.00
27425;BME280;15244;49.088;11.886;2023-03-24T20:30:02;95072.97;;;13.29;51.77
27425;BME280;15244;49.088;11.886;2023-03-24T20:35:05;95075.75;;;13.25;51.79
27425;BME280;15244;49.088;11.886;2023-03-24T20:40:07;95090.59;;;13.24;51.78
27425;BME280;15244;49.088;11.886;2023-03-24T20:45:14;95086.41;;;13.19;51.67
27425;BME280;15244;49.088;11.886;2023-03-24T20:50:16;95066.81;;;13.21;51.81
27425;BME280;15244;49.088;11.886;2023-03-24T20:55:17;95077.81;;;13.17;51.78
27425;BME280;15244;49.088;11.886;2023-03-24T21:00:19;95082.22;;;13.11;52.12
27425;BME280;15244;49.088;11.886;2023-03-24T21:05:21;95088.13;;;13.10;52.20
27425;BME280;15244;49.088;11.886;2023-03-24T21:10:25;95089.66;;;13.11;52.37
27425;BME280;15244;49.088;11.886;2023-03-24T21:15:26;95078.28;;;13.12;52.65
27425;BME280;15244;49.088;11.886;2023-03-24T21:20:29;95084.91;;;13.15;52.70
27425;BME280;15244;49.088;11.886;2023-03-24T21:25:31;95073.22;;;13.11;52.76
27425;BME280;15244;49.088;11.886;2023-03-24T21:30:35;95075.66;;;13.05;52.81
27425;BME280;15244;49.088;11.886;2023-03-24T21:35:39;95078.09;;;12.99;52.87
27425;BME280;15244;49.088;11.886;2023-03-24T21:40:45;95073.94;;;12.91;53.25
27425;BME280;15244;49.088;11.886;2023-03-24T21:45:56;95069.28;;;12.88;53.17
27425;BME280;15244;49.088;11.886;2023-03-24T21:50:58;95076.34;;;12.86;53.46
27425;BME280;15244;49.088;11.886;2023-03-24T21:56:05;95076.03;;;12.80;53.56
27425;BME280;15244;49.088;11.886;2023-03-24T22:01:09;95078.88;;;12.73;53.49
27425;BME280;15244;49.088;11.886;2023-03-24T22:06:14;95075.53;;;12.62;54.17
27425;BME280;15244;49.088;11.886;2023-03-24T22:11:16;95086.09;;;12.60;53.94
27425;BME280;15244;49.088;11.886;2023-03-24T22:16:19;95084.59;;;12.55;54.02
27425;BME280;15244;49.088;11.886;2023-03-24T22:21:21;95080.28;;;12.57;53.73
27425;BME280;15244;49.088;11.886;2023-03-24T22:26:23;95076.38;;;12.58;53.95
27425;BME280;15244;49.088;11.886;2023-03-24T22:31:30;95092.41;;;12.56;53.63
27425;BME280;15244;49.088;11.886;2023-03-24T22:36:33;95103.38;;;12.53;53.93
27425;BME280;15244;49.088;11.886;2023-03-24T22:41:37;95104.56;;;12.52;53.72
27425;BME280;15244;49.088;11.886;2023-03-24T22:46:47;95110.59;;;12.40;53.63
27425;BME280;15244;49.088;11.886;2023-03-24T22:51:49;95104.50;;;12.28;53.60
27425;BME280;15244;49.088;11.886;2023-03-24T22:56:53;95102.59;;;12.22;54.02
27425;BME280;15244;49.088;11.886;2023-03-24T23:01:57;95108.53;;;12.17;53.90
27425;BME280;15244;49.088;11.886;2023-03-24T23:07:10;95114.03;;;12.13;53.86
27425;BME280;15244;49.088;11.886;2023-03-24T23:12:11;95110.63;;;12.05;53.89
27425;BME280;15244;49.088;11.886;2023-03-24T23:17:16;95114.50;;;12.08;53.46
27425;BME280;15244;49.088;11.886;2023-03-24T23:22:20;95117.69;;;12.03;53.63
27425;BME280;15244;49.088;11.886;2023-03-24T23:27:22;95112.22;;;11.99;53.45
27425;BME280;15244;49.088;11.886;2023-03-24T23:32:24;95125.56;;;11.93;53.57
27425;BME280;15244;49.088;11.886;2023-03-24T23:37:31;95127.97;;;11.88;53.57
27425;BME280;15244;49.088;11.886;2023-03-24T23:42:35;95135.00;;;11.82;53.32
27425;BME280;15244;49.088;11.886;2023-03-24T23:47:37;95133.22;;;11.68;53.54
27425;BME280;15244;49.088;11.886;2023-03-24T23:52:39;95120.81;;;11.60;53.50
27425;BME280;15244;49.088;11.886;2023-03-24T23:57:47;95124.47;;;11.42;53.54
